createdAt,value
2022-08-10T00:05:09.499Z,1031.0545828380696
2022-08-10T00:12:54.169Z,1031.021036560137
2022-08-10T00:21:13.722Z,1031.030217662164
2022-08-10T00:30:15.109Z,1031.0290432087575
2022-08-10T00:37:42.000Z,1030.9754226210148
2022-08-10T00:46:04.057Z,1030.9573831042005
2022-08-10T00:54:02.238Z,1031.0116588644228
2022-08-10T01:05:51.199Z,1030.9064036317059
2022-08-10T01:14:57.024Z,1030.8789011809597
2022-08-10T01:22:58.003Z,1030.8928288836066
2022-08-10T01:30:46.599Z,1030.8672775570908
2022-08-10T01:38:50.326Z,1030.8751351769224
2022-08-10T01:46:27.265Z,1030.8050045970276
2022-08-10T01:54:09.341Z,1030.774306053819
2022-08-10T02:01:32.004Z,1030.783242812309
2022-08-10T02:09:27.609Z,1030.7989708933248
2022-08-10T02:17:57.248Z,1030.7571999523277
2022-08-10T02:26:56.381Z,1030.7409808329824
2022-08-10T02:34:42.805Z,1030.7484295908348
2022-08-10T02:46:55.335Z,1030.7770284277967
2022-08-10T02:54:59.540Z,1030.738154089441
2022-08-10T03:03:11.385Z,1030.6905497088208
2022-08-10T03:11:01.476Z,1030.7122028651625
2022-08-10T03:21:26.156Z,1030.763897282031
2022-08-10T03:29:10.495Z,1030.8193243522985
2022-08-10T03:38:00.448Z,1030.6308470209144
2022-08-10T03:45:41.788Z,1030.6133178104706
2022-08-10T03:54:49.390Z,1030.5714249902835
2022-08-10T04:04:57.849Z,1030.5802569805146
2022-08-10T04:12:44.480Z,1030.687022690786
2022-08-10T04:21:28.896Z,1030.6911671865446
2022-08-10T04:29:05.456Z,1030.7923602964206
2022-08-10T04:36:38.179Z,1030.7293888149266
2022-08-10T04:44:20.499Z,1030.8066713612984
2022-08-10T04:54:03.679Z,1030.9328810438785
2022-08-10T05:02:12.200Z,1030.9486307035638
2022-08-10T05:11:23.736Z,1030.9377128925282
2022-08-10T05:18:52.994Z,1030.9652227549786
2022-08-10T05:27:57.363Z,1030.9419628025594
2022-08-10T05:35:55.290Z,1030.9025601346566
2022-08-10T05:44:37.681Z,1030.9068683140686
2022-08-10T05:54:50.614Z,1030.9326910638295
2022-08-10T06:03:56.824Z,1030.935155982236
2022-08-10T06:13:19.372Z,1031.0112714958686
2022-08-10T06:21:37.045Z,1031.0464786115624
2022-08-10T06:30:20.472Z,1031.0718499660281
2022-08-10T06:37:57.142Z,1031.101945257969
2022-08-10T06:46:56.135Z,1031.0676499639774
2022-08-10T06:55:05.092Z,1031.0303447737003
2022-08-10T07:03:03.499Z,1031.0319670897259
2022-08-10T07:10:45.762Z,1031.0295246627823
2022-08-10T07:20:11.824Z,1030.9500391913573
2022-08-10T07:29:09.372Z,1030.998096129156
2022-08-10T07:37:55.990Z,1031.002071297093
2022-08-10T07:45:48.273Z,1030.9733713755827
2022-08-10T07:53:45.701Z,1031.0844183898378
2022-08-10T08:02:17.389Z,1031.0194543336152
2022-08-10T08:10:43.687Z,1030.9845452471313
2022-08-10T08:20:28.805Z,1030.857823911329
2022-08-10T08:30:51.072Z,1030.8011368080645
2022-08-10T08:39:47.282Z,1030.856511905509
2022-08-10T08:48:03.414Z,1030.8150196350587
2022-08-10T08:58:58.285Z,1030.740942164443
2022-08-10T09:06:48.136Z,1030.7690576752473
2022-08-10T09:14:55.621Z,1030.7924729194297
2022-08-10T09:22:46.604Z,1030.7164730030927
2022-08-10T09:30:25.358Z,1030.6906441428628
2022-08-10T09:44:29.947Z,1030.5481040398947
2022-08-10T09:53:19.465Z,1030.5267574109978
2022-08-10T10:03:11.773Z,1030.4670406860039
2022-08-10T10:10:51.212Z,1030.4444998854262
2022-08-10T10:18:44.585Z,1030.2859527505507
2022-08-10T10:27:03.675Z,1030.2728382154291
2022-08-10T10:35:28.577Z,1030.1786080273687
2022-08-10T10:43:27.632Z,1030.0841428443355
2022-08-10T10:51:18.618Z,1030.1314308402298
2022-08-10T11:01:09.460Z,1030.0316154777488
2022-08-10T11:08:59.130Z,1029.8839708655441
2022-08-10T11:19:15.394Z,1029.8929139016661
2022-08-10T11:27:52.075Z,1029.825515813435
2022-08-10T11:36:21.550Z,1029.7378630880607
2022-08-10T11:46:23.081Z,1029.6008499318875
2022-08-10T11:54:40.918Z,1029.564134463445
2022-08-10T12:02:45.112Z,1029.62775335938
2022-08-10T12:13:58.654Z,1029.5021630221136
2022-08-10T12:21:43.936Z,1029.5056177550161
2022-08-10T12:30:05.304Z,1029.322741245266
2022-08-10T12:38:33.111Z,1029.189872908619
2022-08-10T12:47:34.998Z,1029.2423432559178
2022-08-10T12:55:46.266Z,1029.0647171894398
2022-08-10T13:05:55.020Z,1028.9310542120954
2022-08-10T13:16:36.740Z,1028.8413532338413
2022-08-10T13:24:55.512Z,1028.7488199906684
2022-08-10T13:34:03.967Z,1028.6833143290417
2022-08-10T13:42:09.939Z,1028.5036218449454
2022-08-10T13:49:56.553Z,1028.5728707784322
2022-08-10T13:58:20.525Z,1028.4861400721181
2022-08-10T14:06:51.504Z,1028.4684394709122
2022-08-10T14:15:04.484Z,1028.416630346864
2022-08-10T14:22:54.627Z,1028.451118850575
2022-08-10T14:30:54.342Z,1028.322905443581
2022-08-10T14:40:12.102Z,1028.2144098069696
2022-08-10T14:49:25.135Z,1028.0978899654574
2022-08-10T14:58:16.336Z,1028.0652169335078
2022-08-10T15:08:46.971Z,1027.9911171609879
2022-08-10T15:18:26.448Z,1028.0007348509448
2022-08-10T15:27:54.181Z,1027.8328617822144
2022-08-10T15:37:02.098Z,1027.878526778818
2022-08-10T15:46:50.834Z,1027.7561312238038
2022-08-10T15:55:42.011Z,1027.7154561524299
2022-08-10T16:04:39.355Z,1027.7300990851184
2022-08-10T16:14:46.617Z,1027.7130697888874
2022-08-10T16:23:27.916Z,1027.6383171001758
2022-08-10T16:31:27.028Z,1027.6859078776051
2022-08-10T16:39:57.285Z,1027.5824721840875
2022-08-10T16:48:49.252Z,1027.6207730647952
2022-08-10T16:56:48.464Z,1027.4470584363107
2022-08-10T17:05:14.579Z,1027.429362530779
2022-08-10T17:13:26.245Z,1027.342463980704
2022-08-10T17:21:28.536Z,1027.321490889389
2022-08-10T17:31:24.399Z,1027.2610255759566
2022-08-10T17:39:17.991Z,1027.2174600981896
2022-08-10T17:47:32.024Z,1027.1404480956205
2022-08-10T17:54:54.063Z,1027.1665151860352
2022-08-10T18:03:25.446Z,1027.1762342201464
2022-08-10T18:11:01.022Z,1027.263249817248
2022-08-10T18:18:28.719Z,1027.335677926393
2022-08-10T18:25:52.459Z,1027.353220359002
2022-08-10T18:33:40.782Z,1027.2580436226335
2022-08-10T18:41:24.493Z,1027.2648848538179
2022-08-10T18:50:09.083Z,1027.3608896321864
2022-08-10T18:58:21.576Z,1027.3765454218678
2022-08-10T19:06:18.822Z,1027.4097494911991
2022-08-10T19:14:22.279Z,1027.5143931186506
2022-08-10T19:22:13.707Z,1027.5891569020976
2022-08-10T19:31:22.870Z,1027.6091064496845
2022-08-10T19:39:50.743Z,1027.6073171740288
2022-08-10T19:48:45.555Z,1027.520895812903
2022-08-10T19:56:30.927Z,1027.5305454275203
2022-08-10T20:05:23.291Z,1027.5956429396294
2022-08-10T20:13:15.071Z,1027.6287284237753
2022-08-10T20:21:01.983Z,1027.6407623988064
2022-08-10T20:29:09.519Z,1027.7035664647744
2022-08-10T20:36:49.820Z,1027.7591928088304
2022-08-10T20:45:12.099Z,1027.784061082389
2022-08-10T20:53:07.213Z,1027.7921864756033
2022-08-10T21:02:01.739Z,1027.800860062719
2022-08-10T21:10:22.699Z,1027.6880066722413
2022-08-10T21:17:59.580Z,1027.7668935652155
